• Join FlightAware (Why Join?)
  • Login
  • US Flag 
04:17AM EDT


 

Airport Tracker/Info


-or-


 

Live Flight TrackerFlight Track Log ✈ SLI2114 ✈ 12-Sep-2013 ✈ MMMY / MTY - MMCL / CUL

Flight Track Log - Related Links

Times and Time Zones

All times are in EDT time to prevent confusion due to time zone crossing. See the SLI2114 flight status page for this flight to view local times or setup timezone preferences in your user account.

Time Position Orientation Groundspeed Altitude Reporting Facility
EDT Latitude Longitude Course Direction KTS MPH feet Rate Location/Type
09:10PM 25.0032 -105.9672 263° West  Level Estimated
09:11PM 24.9867 -106.0750 260° West  Level Estimated
09:12PM 24.9701 -106.1827 260° West  Level Estimated
09:13PM 24.9534 -106.2904 260° West  Level Estimated
09:14PM 24.9366 -106.3981 260° West  Level Estimated
09:15PM 24.9198 -106.5058 260° West  Level Estimated
09:16PM 24.9029 -106.6134 260° West  Level Estimated
09:17PM 24.8859 -106.7210 260° West  Level Estimated
09:18PM 24.8688 -106.8286 260° West  Level Estimated
09:19PM 24.8517 -106.9362 260° West  Level Estimated
09:20PM 24.8344 -107.0437 260° West  Level Estimated
09:21PM 24.8171 -107.1512 260° West  Level Estimated
09:22PM 24.7997 -107.2587 260° West  Level Estimated
09:23PM 24.7823 -107.3661 260° West  Level Estimated
09:24PM 24.7647 -107.4735 260° West  Level Estimated
09:25PM 24.7645 -107.4747 260° West  Level Estimated
09:26PM 24.7645 -107.4747 138° Southeast  Level Estimated
09:27PM 24.7645 -107.4747 138° Southeast  Level Estimated
09:28PM 24.7645 -107.4747 138° Southeast  Level Estimated
09:29PM 24.7645 -107.4747 138° Southeast  Level Estimated
09:30PM 24.7645 -107.4747 138° Southeast  Level Estimated
09:31PM 24.7645 -107.4747 138° Southeast  Level Estimated
09:32PM 24.7645 -107.4747 138° Southeast  Level Estimated
09:33PM 24.7645 -107.4747 138° Southeast  Level Estimated
09:34PM 24.7645 -107.4747 138° Southeast  Level Estimated
09:35PM 24.7645 -107.4747 138° Southeast  Level Estimated
09:36PM 24.7645 -107.4747 138° Southeast  Level Estimated
09:37PM 24.7645 -107.4747 138° Southeast  Level Estimated
09:38PM 24.7645 -107.4747 138° Southeast  Level Estimated
09:39PM 24.7645 -107.4747 138° Southeast  Level Estimated
09:40PM 24.7645 -107.4747 138° Southeast  Level Estimated